Pagina principale
METAR-TAF:

METAR-TAF

Aeroporti :

Tortolì, Italia

Capo Bellavista

latitudine: 39-56N, longitudine: 009-43E, altezza: 138 m

Osservazione

Il bollettino è stato emesso 1 ora e 18 minuti fa, alle 23:55 UTC
Vento 31 kt da sud-ovest con raffiche fino a 48 kt
Temperature 15°C
Umidità 55%
Pressione 1012 hPa
Visibilità 10 km o più
Poco nuvoloso ad un'altezza di 3500 ft

METAR: LIEB 162355Z 23031G48KT 9999 FEW035 15/06 Q1012 RMK FEW QUK / QUL / VIS MAR 20 KM MON INVIS VIS MIN 9999

Ora: 02:13 (01:13 UTC)


TAF: mancante

Osservazioni e previsioni meteorologiche di più di 4000 aeroporti (messaggi METAR e TAF).

Le stazioni disponibili sono rappresentate dai dischi gialli e rossi sulla carta.

Puntare il mouse per vedere il nome della stazione.

Clicca sopra per visualizzare le osservazioni e previsioni meteorologiche.

Per cambiare la mappa : fare clic sui pulsanti verdi con una croce nera per ingrandire, il pulsante verde con un trattino per diminuire, o sulla freccia verde per le mappe adiacenti.


METAR-TAF: